Main page
Satellite images 10-day forecastsClimateMarine weather Cyclones Lightning AirportsFAQ Newsletter About
Weather : Europe Africa North America South America Asia Australia-Oceania Others
Languages Contact

,

latitude: , longitude: , elevation: m


METAR: OTBD 020400Z 31015KT 1100 DU NSC 24/13 Q1009 NOSIG
TAF: OTBD 012302Z 0200/0306 32018G28KT 5000 DU TEMPO 0200/0210 1000 BLDU BECMG 0216/0218 32013KT 8000 NSC

Time: 06:21 (04:21 UTC)

Current weather observation

The report was made 21 minutes ago, at 04:00 UTC
Wind 15 kt from the Northwest
Temperature 24°C
Humidity 50%
Pressure 1009 hPa
Visibility: 1100 m
widespread dust

Change units

Forecast

The report was made 5 hours and 19 minutes ago, at 23:02 UTC
Forecast valid from 02 at 00 UTC to 03 at 06 UTC
Wind 18 kt from the Northwest with gusts up to 28 kt
Visibility: 5000 m
widespread dust
Temporary
from 02 at 00 UTC to 02 at 10 UTC
Visibility: 1000 m
Blowing dust
Becoming
from 02 at 16 UTC to 02 at 18 UTC
Wind 13 kt from the Northwest
Visibility: 8000 m
The information on this site is subject to a disclaimer
Weather : Europe Africa North America South America Asia Australia-Oceania Others
Satellite images 10-day forecastsClimateMarine weather Cyclones Lightning AirportsFAQ Languages Contact Newsletter About